createdAt,value
2023-11-15T00:01:38.458Z,98825.16
2023-11-15T00:04:07.014Z,98824.59
2023-11-15T00:06:35.135Z,98828.00
2023-11-15T00:09:04.094Z,98821.53
2023-11-15T00:11:35.547Z,98825.69
2023-11-15T00:14:03.947Z,98824.66
2023-11-15T00:16:32.620Z,98816.53
2023-11-15T00:19:00.672Z,98824.03
2023-11-15T00:21:28.592Z,98826.87
2023-11-15T00:24:00.049Z,98827.63
2023-11-15T00:26:27.912Z,98819.03
2023-11-15T00:28:57.131Z,98808.22
2023-11-15T00:31:25.626Z,98815.03
2023-11-15T00:33:56.537Z,98809.41
2023-11-15T00:36:24.972Z,98808.12
2023-11-15T00:38:52.980Z,98797.94
2023-11-15T00:41:23.780Z,98809.31
2023-11-15T00:43:52.052Z,98813.56
2023-11-15T00:46:19.942Z,98809.03
2023-11-15T00:48:47.832Z,98803.19
2023-11-15T00:51:16.019Z,98786.38
2023-11-15T00:53:44.095Z,98803.03
2023-11-15T00:56:12.814Z,98795.53
2023-11-15T00:58:42.902Z,98787.50
2023-11-15T01:01:12.649Z,98798.41
2023-11-15T01:03:47.150Z,98800.06
2023-11-15T01:06:15.798Z,98807.28
2023-11-15T01:08:43.730Z,98806.69
2023-11-15T01:11:11.726Z,98801.19
2023-11-15T01:13:43.279Z,98791.22
2023-11-15T01:16:11.133Z,98801.38
2023-11-15T01:18:39.296Z,98800.09
2023-11-15T01:21:10.475Z,98798.78
2023-11-15T01:23:38.956Z,98806.69
2023-11-15T01:26:07.478Z,98813.88
2023-11-15T01:28:35.497Z,98811.37
2023-11-15T01:31:03.930Z,98811.75
2023-11-15T01:33:35.461Z,98815.25
2023-11-15T01:36:03.505Z,98817.56
2023-11-15T01:38:31.394Z,98810.88
2023-11-15T01:41:01.296Z,98811.81
2023-11-15T01:43:29.179Z,98786.41
2023-11-15T01:45:57.379Z,98813.97
2023-11-15T01:48:25.737Z,98813.66
2023-11-15T01:50:53.856Z,98814.75
2023-11-15T01:53:26.834Z,98809.09
2023-11-15T01:55:55.428Z,98805.19
2023-11-15T01:58:26.860Z,98808.38
2023-11-15T02:00:56.192Z,98807.62
2023-11-15T02:03:24.701Z,98812.22
2023-11-15T02:05:54.732Z,98800.72
2023-11-15T02:08:22.759Z,98811.56
2023-11-15T02:10:54.992Z,98812.37
2023-11-15T02:13:28.208Z,98804.13
2023-11-15T02:15:59.624Z,98808.75
2023-11-15T02:18:30.878Z,98812.91
2023-11-15T02:21:02.334Z,98811.91
2023-11-15T02:23:30.566Z,98820.75
2023-11-15T02:26:01.516Z,98822.59
2023-11-15T02:28:29.841Z,98828.44
2023-11-15T02:30:57.955Z,98826.00
2023-11-15T02:33:26.065Z,98827.91
2023-11-15T02:35:55.076Z,98824.91
2023-11-15T02:38:23.285Z,98822.06
2023-11-15T02:40:51.323Z,98829.28
2023-11-15T02:43:19.752Z,98829.16
2023-11-15T02:45:47.680Z,98825.09
2023-11-15T02:48:15.658Z,98829.84
2023-11-15T02:50:44.106Z,98816.62
2023-11-15T02:53:12.090Z,98835.34
2023-11-15T02:55:40.021Z,98845.97
2023-11-15T02:58:08.380Z,98841.38
2023-11-15T03:00:36.458Z,98825.03
2023-11-15T03:03:07.906Z,98835.91
2023-11-15T03:05:36.240Z,98838.72
2023-11-15T03:08:04.279Z,98833.38
2023-11-15T03:10:34.115Z,98826.53
2023-11-15T03:13:02.503Z,98830.41
2023-11-15T03:15:33.614Z,98840.81
2023-11-15T03:18:01.572Z,98832.91
2023-11-15T03:20:30.079Z,98838.66
2023-11-15T03:22:58.124Z,98847.66
2023-11-15T03:25:26.138Z,98846.62
2023-11-15T03:27:55.211Z,98850.37
2023-11-15T03:30:23.203Z,98839.97
2023-11-15T03:32:51.481Z,98848.47
2023-11-15T03:35:23.615Z,98847.38
2023-11-15T03:37:53.514Z,98850.37
2023-11-15T03:40:21.951Z,98849.94
2023-11-15T03:42:50.315Z,98845.28
2023-11-15T03:45:18.510Z,98839.69
2023-11-15T03:47:46.974Z,98844.31
2023-11-15T03:50:18.032Z,98848.56
2023-11-15T03:52:50.256Z,98841.94
2023-11-15T03:55:18.638Z,98849.84
2023-11-15T03:57:51.392Z,98853.47
2023-11-15T04:00:20.089Z,98841.06
2023-11-15T04:02:48.644Z,98835.13
2023-11-15T04:05:20.038Z,98832.53
2023-11-15T04:07:48.417Z,98839.91
2023-11-15T04:10:16.449Z,98844.00
2023-11-15T04:12:46.423Z,98852.34
2023-11-15T04:15:16.303Z,98849.09
2023-11-15T04:17:49.713Z,98829.06
2023-11-15T04:20:22.922Z,98842.97
2023-11-15T04:22:53.074Z,98822.75
2023-11-15T04:25:21.263Z,98843.94
2023-11-15T04:27:51.402Z,98849.84
2023-11-15T04:30:20.911Z,98837.34
2023-11-15T04:32:50.073Z,98842.78
2023-11-15T04:35:22.122Z,98846.41
2023-11-15T04:37:52.347Z,98847.84
2023-11-15T04:40:22.426Z,98848.31
2023-11-15T04:42:53.001Z,98845.56
2023-11-15T04:45:23.467Z,98848.13
2023-11-15T04:47:52.958Z,98837.00
2023-11-15T04:50:22.341Z,98847.72
2023-11-15T04:52:55.422Z,98848.63
2023-11-15T04:55:26.125Z,98851.59
2023-11-15T04:57:55.120Z,98839.62
2023-11-15T05:00:26.813Z,98863.50
2023-11-15T05:02:56.685Z,98867.66
2023-11-15T05:05:25.648Z,98863.28
2023-11-15T05:07:56.222Z,98867.88
2023-11-15T05:10:28.482Z,98860.03
2023-11-15T05:12:59.670Z,98875.03
2023-11-15T05:15:32.038Z,98876.12
2023-11-15T05:18:06.689Z,98866.81
2023-11-15T05:20:38.702Z,98881.94
2023-11-15T05:23:13.728Z,98873.69
2023-11-15T05:25:46.508Z,98873.03
2023-11-15T05:28:18.015Z,98879.28
2023-11-15T05:30:53.556Z,98891.53
2023-11-15T05:33:26.439Z,98883.72
2023-11-15T05:35:59.390Z,98885.69
2023-11-15T05:38:31.740Z,98884.91
2023-11-15T05:41:07.654Z,98886.59
2023-11-15T05:43:43.321Z,98890.66
2023-11-15T05:46:15.707Z,98889.72
2023-11-15T05:48:49.456Z,98888.25
2023-11-15T05:51:23.849Z,98898.03
2023-11-15T05:53:53.305Z,98890.38
2023-11-15T05:56:23.916Z,98907.12
2023-11-15T05:58:55.140Z,98904.06
2023-11-15T06:01:29.041Z,98899.12
2023-11-15T06:04:03.450Z,98881.28
2023-11-15T06:06:40.240Z,98903.31
2023-11-15T06:09:17.340Z,98904.13
2023-11-15T06:11:48.602Z,98900.88
2023-11-15T06:14:27.597Z,98900.72
2023-11-15T06:16:59.933Z,98899.53
2023-11-15T06:19:35.116Z,98905.63
2023-11-15T06:22:05.617Z,98898.63
2023-11-15T06:24:49.477Z,98909.31
2023-11-15T06:27:26.345Z,98910.53
2023-11-15T06:29:58.291Z,98912.78
2023-11-15T06:32:38.695Z,98921.28
2023-11-15T06:35:21.290Z,98921.69
2023-11-15T06:37:53.467Z,98918.53
2023-11-15T06:40:31.142Z,98917.72
2023-11-15T06:43:08.575Z,98924.03
2023-11-15T06:45:46.973Z,98921.09
2023-11-15T06:48:23.847Z,98920.00
2023-11-15T06:51:03.838Z,98918.97
2023-11-15T06:53:40.769Z,98917.50
2023-11-15T06:56:22.302Z,98923.31
2023-11-15T06:58:56.601Z,98921.28
2023-11-15T07:01:36.088Z,98928.69
2023-11-15T07:04:15.141Z,98924.44
2023-11-15T07:06:54.528Z,98931.75
2023-11-15T07:09:29.937Z,98926.94
2023-11-15T07:12:10.730Z,98936.00
2023-11-15T07:14:53.321Z,98937.69
2023-11-15T07:17:34.070Z,98940.38
2023-11-15T07:20:15.276Z,98933.34
2023-11-15T07:22:59.624Z,98938.69
2023-11-15T07:25:35.894Z,98944.41
2023-11-15T07:28:15.806Z,98944.41
2023-11-15T07:30:53.230Z,98951.81
2023-11-15T07:33:25.968Z,98939.78
2023-11-15T07:36:08.850Z,98949.97
2023-11-15T07:38:45.240Z,98951.91
2023-11-15T07:41:23.926Z,98939.06
2023-11-15T07:44:00.779Z,98942.72
2023-11-15T07:46:37.452Z,98941.44
2023-11-15T07:49:13.995Z,98947.72
2023-11-15T07:51:53.962Z,98933.94
2023-11-15T07:54:32.536Z,98942.75
2023-11-15T07:57:11.274Z,98950.06
2023-11-15T07:59:51.789Z,98952.16
2023-11-15T08:02:31.590Z,98959.50
2023-11-15T08:05:15.102Z,98950.22
2023-11-15T08:07:56.720Z,98960.59
2023-11-15T08:10:34.136Z,98958.75
2023-11-15T08:13:08.908Z,98963.47
2023-11-15T08:15:48.341Z,98951.63
2023-11-15T08:18:30.146Z,98956.91
2023-11-15T08:21:09.352Z,98959.88
2023-11-15T08:23:51.551Z,98964.69
2023-11-15T08:26:24.624Z,98955.97
2023-11-15T08:29:03.633Z,98956.19
2023-11-15T08:31:43.057Z,98958.19
2023-11-15T08:34:21.080Z,98958.06
2023-11-15T08:36:59.251Z,98957.31
2023-11-15T08:39:37.048Z,98963.00
2023-11-15T08:42:19.906Z,98958.97
2023-11-15T08:45:00.871Z,98953.34
2023-11-15T08:47:46.557Z,98946.41
2023-11-15T08:50:24.405Z,98952.44
2023-11-15T08:53:04.957Z,98949.81
2023-11-15T08:55:41.378Z,98950.41
2023-11-15T08:58:19.682Z,98949.31
2023-11-15T09:01:01.960Z,98956.22
2023-11-15T09:03:41.950Z,98958.09
2023-11-15T09:06:25.754Z,98959.53
2023-11-15T09:09:11.095Z,98961.19
2023-11-15T09:11:49.405Z,98950.69
2023-11-15T09:14:35.951Z,98955.16
2023-11-15T09:17:18.651Z,98927.22
2023-11-15T09:20:03.089Z,98949.84
2023-11-15T09:22:47.600Z,98964.84
2023-11-15T09:25:37.925Z,98960.38
2023-11-15T09:28:21.268Z,98958.66
2023-11-15T09:30:56.555Z,98968.75
2023-11-15T09:33:34.788Z,98969.38
2023-11-15T09:36:16.074Z,98981.22
2023-11-15T09:38:49.913Z,98968.75
2023-11-15T09:41:26.653Z,98962.06
2023-11-15T09:44:07.118Z,98970.78
2023-11-15T09:46:52.790Z,98967.66
2023-11-15T09:49:32.680Z,98966.94
2023-11-15T09:52:12.069Z,98972.56
2023-11-15T09:55:01.530Z,98950.16
2023-11-15T09:57:32.134Z,98969.72
2023-11-15T10:00:19.814Z,98981.28
2023-11-15T10:02:58.789Z,98976.78
2023-11-15T10:05:47.866Z,98973.03
2023-11-15T10:08:27.178Z,98978.19
2023-11-15T10:11:13.070Z,98978.72
2023-11-15T10:13:57.558Z,98983.69
2023-11-15T10:16:37.881Z,98990.50
2023-11-15T10:19:36.618Z,98987.78
2023-11-15T10:22:18.108Z,98996.22
2023-11-15T10:25:09.368Z,98986.56
2023-11-15T10:27:51.311Z,98985.81
2023-11-15T10:30:41.179Z,98988.63
2023-11-15T10:33:22.144Z,98981.88
2023-11-15T10:36:25.540Z,98993.47
2023-11-15T10:39:07.296Z,98997.84
2023-11-15T10:41:48.361Z,98987.09
2023-11-15T10:44:31.478Z,98990.19
2023-11-15T10:47:21.589Z,98989.72
2023-11-15T10:50:04.992Z,98983.31
2023-11-15T10:52:45.923Z,99007.16
2023-11-15T10:55:27.377Z,99006.78
2023-11-15T10:58:10.911Z,99001.31
2023-11-15T11:00:49.640Z,98995.84
2023-11-15T11:03:27.560Z,99007.78
2023-11-15T11:06:23.687Z,99007.22
2023-11-15T11:09:34.624Z,99017.91
2023-11-15T11:12:19.643Z,99015.41
2023-11-15T11:15:40.521Z,99015.19
2023-11-15T11:18:23.750Z,99013.34
2023-11-15T11:21:10.967Z,99010.75
2023-11-15T11:24:18.246Z,99009.56
2023-11-15T11:26:56.246Z,99013.88
2023-11-15T11:29:36.918Z,99018.47
2023-11-15T11:32:34.589Z,99022.75
2023-11-15T11:35:20.517Z,99027.38
2023-11-15T11:38:04.027Z,99032.19
2023-11-15T11:40:43.115Z,99024.53
2023-11-15T11:43:23.957Z,99022.34
2023-11-15T11:46:26.334Z,99033.87
2023-11-15T11:49:14.266Z,99030.94
2023-11-15T11:51:54.595Z,99033.87
2023-11-15T11:54:34.704Z,99038.41
2023-11-15T11:57:10.960Z,99050.94
2023-11-15T12:00:28.769Z,99027.59
2023-11-15T12:03:18.623Z,99036.56
2023-11-15T12:06:04.598Z,99022.84
2023-11-15T12:08:48.783Z,99037.69
2023-11-15T12:11:26.050Z,99039.72
2023-11-15T12:14:06.014Z,99039.91
2023-11-15T12:16:49.867Z,99045.09
2023-11-15T12:19:28.078Z,99048.06
2023-11-15T12:22:05.858Z,99045.47
2023-11-15T12:24:47.697Z,99051.97
2023-11-15T12:27:23.450Z,99054.56
2023-11-15T12:30:05.157Z,99060.12
2023-11-15T12:32:50.848Z,99043.22
2023-11-15T12:35:23.665Z,99053.97
2023-11-15T12:38:01.834Z,99057.16
2023-11-15T12:40:41.439Z,99058.06
2023-11-15T12:43:34.571Z,99047.13
2023-11-15T12:46:22.747Z,99053.31
2023-11-15T12:49:07.838Z,99052.47
2023-11-15T12:52:01.641Z,99058.59
2023-11-15T12:54:35.630Z,99063.06
2023-11-15T12:57:23.352Z,99060.34
2023-11-15T12:59:58.986Z,99052.41
2023-11-15T13:02:30.932Z,99057.72
2023-11-15T13:05:08.985Z,99055.16
2023-11-15T13:07:55.349Z,99058.50
2023-11-15T13:10:34.183Z,99062.59
2023-11-15T13:13:27.838Z,99062.06
2023-11-15T13:16:01.960Z,99064.56
2023-11-15T13:18:40.541Z,99054.31
2023-11-15T13:21:27.730Z,99059.84
2023-11-15T13:24:11.216Z,99068.00
2023-11-15T13:26:56.983Z,99068.25
2023-11-15T13:29:46.673Z,99065.56
2023-11-15T13:32:27.024Z,99075.38
2023-11-15T13:35:08.511Z,99067.16
2023-11-15T13:37:43.872Z,99068.81
2023-11-15T13:40:19.720Z,99077.63
2023-11-15T13:42:59.277Z,99075.31
2023-11-15T13:45:37.509Z,99078.59
2023-11-15T13:48:19.777Z,99083.28
2023-11-15T13:51:02.178Z,99082.12
2023-11-15T13:53:43.498Z,99080.97
2023-11-15T13:56:19.346Z,99087.78
2023-11-15T13:59:01.319Z,99092.94
2023-11-15T14:01:43.136Z,99097.75
2023-11-15T14:04:19.301Z,99089.97
2023-11-15T14:06:59.725Z,99086.31
2023-11-15T14:09:48.686Z,99095.97
2023-11-15T14:12:33.333Z,99100.84
2023-11-15T14:15:22.376Z,99098.31
2023-11-15T14:17:58.188Z,99101.66
2023-11-15T14:20:30.893Z,99102.16
2023-11-15T14:23:22.809Z,99105.75
2023-11-15T14:26:05.244Z,99109.25
2023-11-15T14:28:42.483Z,99106.50
2023-11-15T14:31:20.233Z,99112.53
2023-11-15T14:34:10.437Z,99109.78
2023-11-15T14:36:56.480Z,99102.66
2023-11-15T14:39:46.460Z,99104.16
2023-11-15T14:42:33.772Z,99110.53
2023-11-15T14:45:18.848Z,99108.50
2023-11-15T14:48:03.586Z,99110.53
2023-11-15T14:50:50.089Z,99105.34
2023-11-15T14:53:41.897Z,99099.91
2023-11-15T14:56:24.156Z,99106.66
2023-11-15T14:59:15.839Z,99114.19
2023-11-15T15:02:00.886Z,99109.66
2023-11-15T15:07:40.322Z,99121.62
2023-11-15T15:10:24.785Z,99119.53
2023-11-15T15:13:13.262Z,99117.53
2023-11-15T15:15:49.086Z,99118.38
2023-11-15T15:18:30.092Z,99126.03
2023-11-15T15:21:21.767Z,99126.16
2023-11-15T15:23:59.959Z,99130.56
2023-11-15T15:26:54.885Z,99138.78
2023-11-15T15:29:35.481Z,99134.56
2023-11-15T15:32:19.951Z,99132.66
2023-11-15T15:34:56.944Z,99137.09
2023-11-15T15:37:42.189Z,99133.25
2023-11-15T15:40:27.336Z,99140.59
2023-11-15T15:43:15.338Z,99144.09
2023-11-15T15:45:49.898Z,99150.97
2023-11-15T15:48:28.475Z,99148.59
2023-11-15T15:51:10.869Z,99147.44
2023-11-15T15:53:55.350Z,99144.22
2023-11-15T15:56:37.525Z,99146.25
2023-11-15T15:59:15.467Z,99152.47
2023-11-15T16:01:52.853Z,99154.13
2023-11-15T16:04:32.122Z,99148.63
2023-11-15T16:07:18.688Z,99152.16
2023-11-15T16:10:13.679Z,99152.78
2023-11-15T16:12:54.790Z,99143.31
2023-11-15T16:15:44.779Z,99150.78
2023-11-15T16:18:26.860Z,99147.34
2023-11-15T16:21:11.549Z,99141.00
2023-11-15T16:23:57.827Z,99146.44
2023-11-15T16:26:51.053Z,99146.09
2023-11-15T16:29:30.837Z,99149.31
2023-11-15T16:32:23.084Z,99147.47
2023-11-15T16:35:10.500Z,99146.09
2023-11-15T16:38:00.477Z,99151.94
2023-11-15T16:40:38.866Z,99158.44
2023-11-15T16:43:27.362Z,99163.72
2023-11-15T16:46:03.713Z,99162.37
2023-11-15T16:48:45.202Z,99161.38
2023-11-15T16:51:27.042Z,99164.63
2023-11-15T16:54:02.396Z,99163.97
2023-11-15T16:56:47.901Z,99163.28
2023-11-15T16:59:33.669Z,99165.41
2023-11-15T17:02:15.781Z,99167.22
2023-11-15T17:05:00.480Z,99176.97
2023-11-15T17:07:41.540Z,99183.00
2023-11-15T17:10:30.546Z,99182.44
2023-11-15T17:13:17.245Z,99189.47
2023-11-15T17:16:02.480Z,99186.56
2023-11-15T17:18:50.397Z,99179.75
2023-11-15T17:21:27.310Z,99176.72
2023-11-15T17:24:12.527Z,99187.94
2023-11-15T17:27:01.900Z,99192.63
2023-11-15T17:29:38.692Z,99173.31
2023-11-15T17:32:16.670Z,99189.44
2023-11-15T17:34:57.836Z,99193.56
2023-11-15T17:37:36.407Z,99198.88
2023-11-15T17:40:15.322Z,99191.81
2023-11-15T17:43:01.433Z,99201.66
2023-11-15T17:45:45.453Z,99211.19
2023-11-15T17:48:26.407Z,99209.84
2023-11-15T17:51:05.230Z,99204.53
2023-11-15T17:53:43.678Z,99216.25
2023-11-15T17:56:19.510Z,99215.63
2023-11-15T17:59:01.648Z,99223.03
2023-11-15T18:01:40.323Z,99216.72
2023-11-15T18:04:13.869Z,99224.00
2023-11-15T18:06:54.146Z,99223.84
2023-11-15T18:09:31.029Z,99239.37
2023-11-15T18:12:08.735Z,99231.69
2023-11-15T18:15:00.825Z,99213.28
2023-11-15T18:17:45.021Z,99241.81
2023-11-15T18:20:30.389Z,99245.16
2023-11-15T18:23:06.425Z,99243.88
2023-11-15T18:25:47.598Z,99253.09
2023-11-15T18:28:26.506Z,99240.22
2023-11-15T18:31:12.923Z,99243.50
2023-11-15T18:33:53.222Z,99243.88
2023-11-15T18:36:36.667Z,99238.16
2023-11-15T18:39:24.026Z,99220.50
2023-11-15T18:42:02.835Z,99239.53
2023-11-15T18:44:40.169Z,99237.69
2023-11-15T18:47:24.547Z,99234.66
2023-11-15T18:50:01.022Z,99236.34
2023-11-15T18:52:49.570Z,99239.75
2023-11-15T18:55:24.924Z,99233.81
2023-11-15T18:58:01.358Z,99248.03
2023-11-15T19:00:43.558Z,99237.00
2023-11-15T19:03:22.409Z,99242.41
2023-11-15T19:05:57.383Z,99251.34
2023-11-15T19:08:38.127Z,99252.31
2023-11-15T19:11:17.748Z,99249.41
2023-11-15T19:13:59.339Z,99250.88
2023-11-15T19:16:34.983Z,99246.59
2023-11-15T19:19:10.987Z,99256.34
2023-11-15T19:21:49.092Z,99267.69
2023-11-15T19:24:27.044Z,99261.47
2023-11-15T19:27:00.746Z,99259.00
2023-11-15T19:29:38.094Z,99249.19
2023-11-15T19:32:20.440Z,99270.53
2023-11-15T19:34:56.232Z,99268.06
2023-11-15T19:37:34.849Z,99269.59
2023-11-15T19:40:12.887Z,99266.44
2023-11-15T19:42:46.723Z,99256.72
2023-11-15T19:45:24.222Z,99272.25
2023-11-15T19:47:58.101Z,99271.03
2023-11-15T19:50:38.153Z,99273.00
2023-11-15T19:53:13.504Z,99244.69
2023-11-15T19:55:48.144Z,99260.59
2023-11-15T19:58:27.837Z,99273.06
2023-11-15T20:01:01.452Z,99269.34
2023-11-15T20:03:35.894Z,99267.59
2023-11-15T20:06:11.031Z,99262.97
2023-11-15T20:08:44.655Z,99269.28
2023-11-15T20:11:19.111Z,99264.94
2023-11-15T20:13:56.962Z,99267.22
2023-11-15T20:16:35.193Z,99272.25
2023-11-15T20:19:05.997Z,99269.47
2023-11-15T20:21:38.110Z,99272.56
2023-11-15T20:24:11.723Z,99275.38
2023-11-15T20:26:41.503Z,99275.53
2023-11-15T20:29:11.815Z,99268.59
2023-11-15T20:31:47.171Z,99271.19
2023-11-15T20:34:20.367Z,99275.22
2023-11-15T20:36:49.605Z,99277.66
2023-11-15T20:39:24.872Z,99260.16
2023-11-15T20:41:57.798Z,99281.16
2023-11-15T20:44:29.602Z,99280.22
2023-11-15T20:47:02.270Z,99277.87
2023-11-15T20:49:35.244Z,99278.34
2023-11-15T20:52:07.922Z,99281.22
2023-11-15T20:54:41.180Z,99266.19
2023-11-15T20:57:11.101Z,99285.97
2023-11-15T20:59:41.131Z,99287.63
2023-11-15T21:02:09.919Z,99285.66
2023-11-15T21:04:40.900Z,99284.72
2023-11-15T21:07:10.363Z,99288.25
2023-11-15T21:09:39.854Z,99286.41
2023-11-15T21:12:10.134Z,99284.28
2023-11-15T21:14:40.445Z,99283.59
2023-11-15T21:17:11.886Z,99286.69
2023-11-15T21:19:43.405Z,99284.56
2023-11-15T21:22:12.460Z,99288.44
2023-11-15T21:24:43.668Z,99294.50
2023-11-15T21:27:13.273Z,99285.66
2023-11-15T21:29:45.445Z,99295.25
2023-11-15T21:32:16.956Z,99296.59
2023-11-15T21:34:49.907Z,99285.72
2023-11-15T21:37:21.617Z,99260.69
2023-11-15T21:39:50.519Z,99300.19
2023-11-15T21:42:20.020Z,99290.72
2023-11-15T21:44:50.602Z,99297.38
2023-11-15T21:47:20.216Z,99300.56
2023-11-15T21:49:54.628Z,99280.47
2023-11-15T21:52:23.233Z,99306.22
2023-11-15T21:54:51.170Z,99306.78
2023-11-15T21:57:19.340Z,99306.66
2023-11-15T21:59:50.839Z,99300.47
2023-11-15T22:02:18.860Z,99309.16
2023-11-15T22:04:48.173Z,99298.66
2023-11-15T22:07:16.221Z,99283.50
2023-11-15T22:09:44.003Z,99289.28
2023-11-15T22:12:12.440Z,99302.59
2023-11-15T22:14:40.451Z,99305.84
2023-11-15T22:17:08.720Z,99306.69
2023-11-15T22:19:38.640Z,99310.91
2023-11-15T22:22:07.464Z,99300.69
2023-11-15T22:24:35.335Z,99298.91
2023-11-15T22:27:03.649Z,99304.09
2023-11-15T22:29:31.563Z,99287.28
2023-11-15T22:31:59.876Z,99304.84
2023-11-15T22:34:28.862Z,99303.88
2023-11-15T22:36:59.575Z,99295.13
2023-11-15T22:39:27.534Z,99295.94
2023-11-15T22:41:55.903Z,99294.34
2023-11-15T22:44:23.916Z,99284.06
2023-11-15T22:46:51.800Z,99293.59
2023-11-15T22:49:21.378Z,99298.69
2023-11-15T22:51:52.640Z,99289.50
2023-11-15T22:54:20.778Z,99293.53
2023-11-15T22:56:48.829Z,99291.16
2023-11-15T22:59:16.694Z,99304.53
2023-11-15T23:01:45.387Z,99304.66
2023-11-15T23:04:16.905Z,99305.38
2023-11-15T23:06:46.013Z,99304.53
2023-11-15T23:09:19.056Z,99305.22
2023-11-15T23:11:47.956Z,99302.72
2023-11-15T23:14:15.907Z,99304.47
2023-11-15T23:16:45.385Z,99303.72
2023-11-15T23:19:13.722Z,99309.06
2023-11-15T23:21:47.854Z,99299.37
2023-11-15T23:24:26.221Z,99302.78
2023-11-15T23:26:54.165Z,99297.25
2023-11-15T23:29:23.221Z,99304.09
2023-11-15T23:31:51.562Z,99308.37
2023-11-15T23:34:24.012Z,99308.31
2023-11-15T23:36:55.717Z,99297.66
2023-11-15T23:39:24.549Z,99306.19
2023-11-15T23:41:52.770Z,99316.41
2023-11-15T23:44:21.465Z,99314.69
2023-11-15T23:46:52.475Z,99319.12
2023-11-15T23:49:22.442Z,99305.13
2023-11-15T23:51:50.315Z,99313.94
2023-11-15T23:54:18.550Z,99319.44
2023-11-15T23:56:46.889Z,99321.84
2023-11-15T23:59:14.787Z,99323.19
